Time;durP1;ratioP1;P1;durP2;ratioP2;P2;SDS_P1;SDS_P2;PMS_P1;PMS_P2;Temp;Humidity;BMP_temperature;BMP_pressure;BME280_temperature;BME280_humidity;BME280_pressure;Samples;Min_cycle;Max_cycle;Signal;HPM_P1;HPM_P2
2022/12/09 00:01:47;;;;;;;18.13;14.83;;;;;;;;;;4997113;28;20295;-87
2022/12/09 00:04:12;;;;;;;16.33;13.77;;;;;;;;;;5002056;28;20290;-87
2022/12/09 00:06:38;;;;;;;15.00;12.97;;;;;;;;;;4992323;28;20243;-86
2022/12/09 00:09:04;;;;;;;18.63;15.47;;;;;;;;;;4998973;28;20220;-84
2022/12/09 00:11:29;;;;;;;16.70;14.10;;;;;;;;;;4999106;28;20228;-87
2022/12/09 00:13:56;;;;;;;19.93;14.70;;;;;;;;;;4999456;28;20302;-87
2022/12/09 00:16:24;;;;;;;16.90;14.77;;;;;;;;;;4977564;28;20239;-87
2022/12/09 00:18:50;;;;;;;19.67;14.43;;;;;;;;;;4995011;28;20227;-85
2022/12/09 00:21:19;;;;;;;21.40;16.13;;;;;;;;;;4993207;28;20215;-86
2022/12/09 00:23:45;;;;;;;20.87;15.63;;;;;;;;;;5012619;28;20307;-85
2022/12/09 00:26:10;;;;;;;19.73;15.33;;;;;;;;;;4996118;28;20248;-86
2022/12/09 00:28:36;;;;;;;21.50;15.40;;;;;;;;;;4999221;28;20216;-87
2022/12/09 00:31:05;;;;;;;18.53;14.87;;;;;;;;;;4994537;28;20239;-85
2022/12/09 00:33:34;;;;;;;19.43;14.67;;;;;;;;;;5020992;28;20724;-87
2022/12/09 00:36:07;;;;;;;17.43;14.53;;;;;;;;;;5001126;28;20299;-86
2022/12/09 00:38:33;;;;;;;19.60;15.27;;;;;;;;;;5000269;28;20694;-87
2022/12/09 00:40:58;;;;;;;23.27;15.43;;;;;;;;;;5008482;28;20222;-87
2022/12/09 00:43:24;;;;;;;24.50;16.03;;;;;;;;;;4997111;28;20287;-86
2022/12/09 00:45:54;;;;;;;17.40;15.03;;;;;;;;;;4997984;28;20242;-85
2022/12/09 00:48:22;;;;;;;23.00;15.73;;;;;;;;;;4988729;28;20706;-86
2022/12/09 00:50:50;;;;;;;19.40;15.90;;;;;;;;;;5001419;28;20221;-85
2022/12/09 00:53:18;;;;;;;21.20;15.50;;;;;;;;;;4988619;28;20300;-87
2022/12/09 00:55:46;;;;;;;17.20;15.40;;;;;;;;;;4978804;28;20737;-86
2022/12/09 00:58:12;;;;;;;16.57;14.47;;;;;;;;;;4997794;28;20239;-86
2022/12/09 01:00:38;;;;;;;17.73;14.80;;;;;;;;;;4999464;28;20212;-86
2022/12/09 01:03:06;;;;;;;18.87;15.53;;;;;;;;;;5006277;28;20225;-86
2022/12/09 01:05:34;;;;;;;22.40;16.07;;;;;;;;;;5004031;28;20220;-87
2022/12/09 01:08:00;;;;;;;21.90;14.90;;;;;;;;;;5003734;28;20220;-87
2022/12/09 01:10:25;;;;;;;17.87;14.77;;;;;;;;;;5001874;28;20227;-86
2022/12/09 01:12:51;;;;;;;20.43;14.03;;;;;;;;;;4999356;28;20228;-85
2022/12/09 01:15:16;;;;;;;34.93;20.93;;;;;;;;;;5001851;28;20219;-86
2022/12/09 01:17:42;;;;;;;23.40;16.17;;;;;;;;;;5000484;28;20232;-87
2022/12/09 01:20:08;;;;;;;19.00;14.97;;;;;;;;;;5005090;28;20299;-87
2022/12/09 01:22:36;;;;;;;20.33;14.20;;;;;;;;;;5015933;28;20225;-86
2022/12/09 01:25:02;;;;;;;17.03;14.27;;;;;;;;;;5001568;28;20240;-87
2022/12/09 01:27:30;;;;;;;18.63;14.00;;;;;;;;;;5002546;28;20221;-88
2022/12/09 01:29:58;;;;;;;18.70;13.67;;;;;;;;;;5013886;28;20224;-83
2022/12/09 01:32:23;;;;;;;14.80;13.20;;;;;;;;;;5027321;28;20248;-84
2022/12/09 01:34:49;;;;;;;15.30;13.27;;;;;;;;;;5029707;28;20232;-84
2022/12/09 01:37:14;;;;;;;16.87;13.13;;;;;;;;;;5017289;28;20209;-85
2022/12/09 01:39:42;;;;;;;17.83;13.73;;;;;;;;;;5019209;28;20665;-84
2022/12/09 01:42:17;;;;;;;19.63;13.87;;;;;;;;;;5017417;28;20225;-84
2022/12/09 01:45:29;;;;;;;15.20;13.50;;;;;;;;;;5044733;28;20224;-84
2022/12/09 01:48:02;;;;;;;16.97;12.93;;;;;;;;;;5048116;28;20230;-83
2022/12/09 01:50:28;;;;;;;16.07;13.53;;;;;;;;;;5005374;28;20221;-86
2022/12/09 01:52:54;;;;;;;15.03;13.33;;;;;;;;;;4996432;28;20224;-85
2022/12/09 01:55:22;;;;;;;15.00;13.37;;;;;;;;;;5026182;28;20299;-86
2022/12/09 01:57:47;;;;;;;14.17;12.33;;;;;;;;;;5000722;28;20247;-87
2022/12/09 02:00:15;;;;;;;16.00;13.37;;;;;;;;;;4999832;28;20307;-86
2022/12/09 02:02:47;;;;;;;15.33;12.03;;;;;;;;;;5002047;28;20287;-87
2022/12/09 02:05:16;;;;;;;15.07;11.73;;;;;;;;;;4979508;28;20332;-87
2022/12/09 02:07:51;;;;;;;14.30;11.87;;;;;;;;;;5003551;28;20223;-88
2022/12/09 02:10:16;;;;;;;14.80;13.17;;;;;;;;;;4993096;28;20284;-86
2022/12/09 02:13:03;;;;;;;15.53;12.87;;;;;;;;;;4997258;28;20212;-86
2022/12/09 02:15:59;;;;;;;19.50;12.90;;;;;;;;;;5015701;28;20705;-87
2022/12/09 02:18:35;;;;;;;14.70;13.07;;;;;;;;;;4997161;28;20217;-87
2022/12/09 02:21:03;;;;;;;17.50;13.33;;;;;;;;;;5016081;28;20231;-86
2022/12/09 02:23:35;;;;;;;14.20;12.73;;;;;;;;;;5016643;28;20242;-87
2022/12/09 02:26:12;;;;;;;16.80;12.80;;;;;;;;;;4998712;28;20239;-87
2022/12/09 02:28:48;;;;;;;14.73;12.40;;;;;;;;;;5025951;28;20227;-86
2022/12/09 02:31:40;;;;;;;14.17;12.43;;;;;;;;;;5005271;28;20271;-87
2022/12/09 02:34:21;;;;;;;15.23;12.13;;;;;;;;;;5025178;28;20229;-87
2022/12/09 02:37:09;;;;;;;13.50;11.87;;;;;;;;;;5003690;28;20278;-86
2022/12/09 02:39:42;;;;;;;14.30;11.80;;;;;;;;;;5013990;28;20216;-87
2022/12/09 02:42:08;;;;;;;15.40;12.03;;;;;;;;;;5021143;28;20284;-88
2022/12/09 02:44:39;;;;;;;13.63;12.23;;;;;;;;;;4999548;28;20663;-88
2022/12/09 02:47:10;;;;;;;14.10;12.67;;;;;;;;;;5003190;28;20235;-88
2022/12/09 02:49:39;;;;;;;13.10;11.70;;;;;;;;;;5019138;28;20216;-85
2022/12/09 02:52:10;;;;;;;17.40;14.37;;;;;;;;;;5009004;28;20279;-85
2022/12/09 02:54:36;;;;;;;14.83;12.43;;;;;;;;;;5016047;28;20295;-86
2022/12/09 02:57:09;;;;;;;15.53;13.30;;;;;;;;;;5009229;28;20244;-86
2022/12/09 02:59:37;;;;;;;14.53;13.03;;;;;;;;;;4999019;28;20225;-88
2022/12/09 03:02:28;;;;;;;15.40;12.83;;;;;;;;;;5016293;28;20200;-86
2022/12/09 03:05:18;;;;;;;15.07;12.37;;;;;;;;;;5020877;28;20256;-85
2022/12/09 03:08:04;;;;;;;15.00;12.50;;;;;;;;;;5014151;28;20231;-87
2022/12/09 03:10:36;;;;;;;13.83;11.80;;;;;;;;;;5031250;28;20231;-88
2022/12/09 03:13:16;;;;;;;12.47;11.17;;;;;;;;;;5025103;28;20224;-88
2022/12/09 03:15:45;;;;;;;12.47;10.80;;;;;;;;;;5003108;28;20228;-87
2022/12/09 03:18:14;;;;;;;13.40;12.00;;;;;;;;;;5007470;28;20316;-87
2022/12/09 03:20:42;;;;;;;12.13;10.83;;;;;;;;;;4994388;28;20228;-87
2022/12/09 03:23:08;;;;;;;13.97;11.43;;;;;;;;;;4997141;28;20230;-87
2022/12/09 03:25:57;;;;;;;12.90;11.40;;;;;;;;;;4997231;28;20235;-88
2022/12/09 03:28:34;;;;;;;13.70;11.23;;;;;;;;;;4998429;28;20223;-88
2022/12/09 03:31:01;;;;;;;14.33;11.80;;;;;;;;;;4996158;28;20220;-86
2022/12/09 03:33:29;;;;;;;17.07;11.30;;;;;;;;;;5003632;28;20240;-87
2022/12/09 03:36:01;;;;;;;17.50;12.77;;;;;;;;;;5001003;28;20225;-88
2022/12/09 03:38:31;;;;;;;15.33;12.83;;;;;;;;;;5001633;28;20235;-87
2022/12/09 03:41:02;;;;;;;18.30;12.97;;;;;;;;;;5002324;28;20274;-87
2022/12/09 03:43:31;;;;;;;17.93;13.73;;;;;;;;;;4996756;28;20221;-87
2022/12/09 03:45:59;;;;;;;17.87;12.87;;;;;;;;;;5024717;28;20224;-86
2022/12/09 03:48:27;;;;;;;16.93;13.10;;;;;;;;;;4998290;28;20216;-86
2022/12/09 03:51:04;;;;;;;21.67;13.13;;;;;;;;;;5001992;28;20266;-86
2022/12/09 03:53:51;;;;;;;19.43;13.27;;;;;;;;;;5025858;28;20295;-87
2022/12/09 03:56:18;;;;;;;18.53;12.97;;;;;;;;;;5004643;28;20312;-87
2022/12/09 03:58:44;;;;;;;18.30;12.40;;;;;;;;;;5016887;28;20229;-88
2022/12/09 04:01:14;;;;;;;24.93;13.40;;;;;;;;;;5006278;28;20275;-87
2022/12/09 04:03:44;;;;;;;34.33;13.50;;;;;;;;;;5020168;28;20216;-89
2022/12/09 04:06:11;;;;;;;22.47;13.53;;;;;;;;;;5002612;28;20672;-88
2022/12/09 04:08:37;;;;;;;25.83;13.50;;;;;;;;;;4998909;28;20216;-88
2022/12/09 04:11:03;;;;;;;21.53;13.20;;;;;;;;;;4973475;28;20576;-87
2022/12/09 04:13:33;;;;;;;29.47;13.17;;;;;;;;;;4999732;28;20590;-88
2022/12/09 04:15:58;;;;;;;20.27;13.57;;;;;;;;;;4998766;28;20596;-88
2022/12/09 04:18:26;;;;;;;22.27;12.83;;;;;;;;;;5003464;28;20226;-87
2022/12/09 04:20:52;;;;;;;18.90;12.73;;;;;;;;;;5005379;28;20217;-87
2022/12/09 04:23:24;;;;;;;19.20;14.17;;;;;;;;;;4979916;28;20715;-89
2022/12/09 04:25:49;;;;;;;20.73;14.10;;;;;;;;;;4998178;28;20232;-88
2022/12/09 04:28:19;;;;;;;16.13;13.53;;;;;;;;;;4995618;28;20227;-87
2022/12/09 04:30:45;;;;;;;17.73;13.30;;;;;;;;;;4988852;28;20231;-87
2022/12/09 04:33:11;;;;;;;18.10;13.37;;;;;;;;;;4999452;28;20224;-88
2022/12/09 04:35:41;;;;;;;16.07;13.53;;;;;;;;;;4994840;28;20224;-88
2022/12/09 04:38:07;;;;;;;18.93;12.53;;;;;;;;;;4995462;28;20225;-87
2022/12/09 04:40:36;;;;;;;27.60;12.20;;;;;;;;;;4999444;28;20226;-87
2022/12/09 04:43:02;;;;;;;20.80;12.43;;;;;;;;;;5003770;28;20243;-88
2022/12/09 04:45:29;;;;;;;27.43;14.87;;;;;;;;;;4990589;28;20235;-89
2022/12/09 04:48:06;;;;;;;17.80;13.63;;;;;;;;;;4996075;28;20588;-86
2022/12/09 04:50:36;;;;;;;19.67;13.40;;;;;;;;;;5003390;28;20226;-87
2022/12/09 04:53:02;;;;;;;14.40;11.67;;;;;;;;;;5000149;28;20236;-86
2022/12/09 04:55:28;;;;;;;14.80;13.00;;;;;;;;;;4998127;28;20227;-86
2022/12/09 04:57:54;;;;;;;17.10;13.90;;;;;;;;;;4999326;28;20224;-87
2022/12/09 05:00:23;;;;;;;15.67;13.07;;;;;;;;;;4994915;28;20278;-87
2022/12/09 05:02:48;;;;;;;16.43;13.33;;;;;;;;;;4999855;28;20242;-87
2022/12/09 05:05:14;;;;;;;17.70;13.83;;;;;;;;;;4989508;28;20229;-87
2022/12/09 05:07:42;;;;;;;15.10;13.03;;;;;;;;;;4981813;28;20303;-86
2022/12/09 05:10:10;;;;;;;15.10;12.57;;;;;;;;;;4997778;28;20306;-86
2022/12/09 05:12:35;;;;;;;15.67;12.83;;;;;;;;;;4999541;28;20240;-87
2022/12/09 05:15:04;;;;;;;17.20;14.13;;;;;;;;;;4992954;28;20223;-87
2022/12/09 05:17:32;;;;;;;18.33;14.10;;;;;;;;;;5000890;28;20219;-87
2022/12/09 05:19:57;;;;;;;15.10;13.57;;;;;;;;;;4999382;28;20765;-88
2022/12/09 05:22:25;;;;;;;15.70;13.40;;;;;;;;;;5002564;28;20231;-87
2022/12/09 05:24:51;;;;;;;17.07;13.63;;;;;;;;;;4982822;28;20225;-87
2022/12/09 05:27:16;;;;;;;16.07;14.07;;;;;;;;;;4999197;28;20602;-87
2022/12/09 05:29:45;;;;;;;16.50;13.20;;;;;;;;;;4998855;28;20315;-87
2022/12/09 05:32:10;;;;;;;18.23;14.00;;;;;;;;;;4998591;28;20216;-87
2022/12/09 05:34:38;;;;;;;22.63;14.70;;;;;;;;;;4995312;28;20275;-87
2022/12/09 05:37:04;;;;;;;17.63;14.43;;;;;;;;;;4995902;28;20240;-87
2022/12/09 05:39:32;;;;;;;16.17;13.20;;;;;;;;;;4998344;28;20227;-88
2022/12/09 05:41:57;;;;;;;17.27;13.53;;;;;;;;;;4999742;28;20220;-87
2022/12/09 05:44:23;;;;;;;18.50;14.40;;;;;;;;;;4999721;28;20227;-88
2022/12/09 05:46:49;;;;;;;17.30;14.17;;;;;;;;;;5000942;28;20238;-87
2022/12/09 05:49:17;;;;;;;16.17;14.47;;;;;;;;;;5004173;28;20245;-87
2022/12/09 05:51:45;;;;;;;18.23;14.93;;;;;;;;;;4988135;28;20275;-86
2022/12/09 05:54:10;;;;;;;18.70;15.33;;;;;;;;;;5003245;28;20570;-87
2022/12/09 05:56:36;;;;;;;16.47;14.30;;;;;;;;;;5002156;28;20223;-87
2022/12/09 05:59:01;;;;;;;19.17;14.23;;;;;;;;;;5003849;28;20774;-87
2022/12/09 06:01:30;;;;;;;18.40;14.83;;;;;;;;;;4986489;28;20219;-87
2022/12/09 06:03:58;;;;;;;16.33;13.73;;;;;;;;;;5004172;28;20212;-87
2022/12/09 06:06:29;;;;;;;15.93;13.77;;;;;;;;;;4999496;28;20242;-87
2022/12/09 06:08:56;;;;;;;17.40;14.00;;;;;;;;;;5001820;28;20220;-86
2022/12/09 06:11:24;;;;;;;18.07;14.67;;;;;;;;;;5004091;28;20228;-87
2022/12/09 06:13:50;;;;;;;18.10;15.00;;;;;;;;;;4990869;28;20929;-88
2022/12/09 06:16:18;;;;;;;16.13;14.10;;;;;;;;;;5003350;28;20239;-86
2022/12/09 06:18:44;;;;;;;15.57;13.40;;;;;;;;;;5019601;28;20219;-88
2022/12/09 06:21:13;;;;;;;15.93;13.10;;;;;;;;;;4998990;28;20231;-87
2022/12/09 06:23:44;;;;;;;14.77;12.93;;;;;;;;;;5010770;28;20224;-87
2022/12/09 06:26:23;;;;;;;15.27;13.13;;;;;;;;;;5015219;28;20248;-86
2022/12/09 06:28:51;;;;;;;14.73;12.67;;;;;;;;;;5020301;28;20223;-86
2022/12/09 06:31:20;;;;;;;15.10;13.33;;;;;;;;;;5014294;28;20235;-86
2022/12/09 06:33:50;;;;;;;17.57;13.53;;;;;;;;;;5001876;28;20217;-86
2022/12/09 06:36:16;;;;;;;15.57;13.80;;;;;;;;;;5017242;28;20239;-87
2022/12/09 06:38:43;;;;;;;16.13;13.57;;;;;;;;;;5017446;28;20200;-86
2022/12/09 06:41:10;;;;;;;15.97;13.97;;;;;;;;;;5020201;28;20212;-86
2022/12/09 06:46:31;;;;;;;14.90;13.40;;;;;;;;;;4979575;28;20237;-76
2022/12/09 06:49:01;;;;;;;14.77;12.80;;;;;;;;;;4963020;28;20242;-76
2022/12/09 06:51:27;;;;;;;14.73;13.23;;;;;;;;;;4996063;28;20492;-76
2022/12/09 06:53:52;;;;;;;14.60;13.03;;;;;;;;;;4961740;28;20813;-76
2022/12/09 06:56:20;;;;;;;14.83;12.67;;;;;;;;;;4959493;28;20728;-76
2022/12/09 06:58:50;;;;;;;14.97;13.03;;;;;;;;;;4935380;28;20717;-76
2022/12/09 07:01:22;;;;;;;14.83;13.27;;;;;;;;;;4940847;28;20218;-76
2022/12/09 07:03:49;;;;;;;14.63;13.17;;;;;;;;;;4985634;28;20246;-76
2022/12/09 07:06:30;;;;;;;15.20;13.03;;;;;;;;;;4972400;28;20308;-76
2022/12/09 07:09:07;;;;;;;15.10;13.50;;;;;;;;;;4971980;28;20228;-76
2022/12/09 07:11:32;;;;;;;14.23;12.70;;;;;;;;;;4942809;28;20232;-76
2022/12/09 07:14:00;;;;;;;15.53;13.93;;;;;;;;;;4955093;28;20226;-76
2022/12/09 07:16:26;;;;;;;16.40;14.60;;;;;;;;;;4970518;28;20700;-76
2022/12/09 07:18:51;;;;;;;17.23;14.50;;;;;;;;;;4969895;28;20229;-76
2022/12/09 07:21:17;;;;;;;16.27;14.53;;;;;;;;;;4944023;28;20658;-76
2022/12/09 07:23:43;;;;;;;16.33;14.60;;;;;;;;;;4970096;28;20214;-76
2022/12/09 07:26:10;;;;;;;15.80;13.90;;;;;;;;;;4987005;28;20232;-76
2022/12/09 07:28:38;;;;;;;19.40;14.87;;;;;;;;;;4946213;28;20620;-76
2022/12/09 07:31:04;;;;;;;17.47;14.57;;;;;;;;;;4938942;28;20241;-76
2022/12/09 07:33:32;;;;;;;17.07;15.27;;;;;;;;;;4972476;28;20217;-76
2022/12/09 07:36:02;;;;;;;19.37;15.53;;;;;;;;;;4953593;28;20223;-75
2022/12/09 07:38:30;;;;;;;17.20;14.83;;;;;;;;;;4966982;28;20219;-77
2022/12/09 07:40:57;;;;;;;17.07;13.97;;;;;;;;;;4960097;28;20229;-76
2022/12/09 07:43:23;;;;;;;16.50;14.77;;;;;;;;;;4945188;28;20242;-76
2022/12/09 07:45:54;;;;;;;16.17;14.43;;;;;;;;;;4968719;28;20236;-76
2022/12/09 07:48:24;;;;;;;15.50;13.93;;;;;;;;;;4983808;28;20221;-76
2022/12/09 07:50:50;;;;;;;16.83;15.10;;;;;;;;;;4967333;28;20597;-76
2022/12/09 07:53:15;;;;;;;19.00;15.87;;;;;;;;;;4941941;28;20225;-76
2022/12/09 07:55:45;;;;;;;17.93;15.27;;;;;;;;;;4972621;28;20642;-76
2022/12/09 07:58:13;;;;;;;18.27;14.73;;;;;;;;;;4959223;28;20226;-76
2022/12/09 08:00:39;;;;;;;19.87;16.47;;;;;;;;;;4952179;28;20289;-76
2022/12/09 08:03:07;;;;;;;17.83;14.17;;;;;;;;;;4968181;28;20223;-76
2022/12/09 08:05:35;;;;;;;16.37;14.67;;;;;;;;;;4955703;28;20307;-76
2022/12/09 08:08:01;;;;;;;16.73;15.00;;;;;;;;;;4978692;28;20711;-77
2022/12/09 08:10:29;;;;;;;19.00;15.57;;;;;;;;;;4959263;28;20245;-76
2022/12/09 08:12:54;;;;;;;18.87;15.17;;;;;;;;;;4973370;28;20222;-76
2022/12/09 08:15:22;;;;;;;17.80;15.90;;;;;;;;;;4968105;28;20230;-74
2022/12/09 08:17:48;;;;;;;17.50;15.70;;;;;;;;;;4970499;28;20277;-76
2022/12/09 08:20:13;;;;;;;17.30;14.57;;;;;;;;;;4988609;28;20229;-76
2022/12/09 08:22:39;;;;;;;16.67;14.80;;;;;;;;;;4969822;28;20226;-76
2022/12/09 08:25:07;;;;;;;16.47;14.77;;;;;;;;;;4985105;28;20305;-75
2022/12/09 08:27:35;;;;;;;18.33;15.37;;;;;;;;;;4957161;28;20245;-76
2022/12/09 08:30:03;;;;;;;16.73;14.87;;;;;;;;;;4945959;28;20288;-76
2022/12/09 08:32:29;;;;;;;19.27;15.83;;;;;;;;;;4972732;28;20253;-77
2022/12/09 08:34:57;;;;;;;18.57;16.00;;;;;;;;;;4962335;28;20352;-76
2022/12/09 08:37:23;;;;;;;16.50;14.63;;;;;;;;;;4939958;28;20305;-76
2022/12/09 08:39:48;;;;;;;21.97;15.07;;;;;;;;;;4973155;28;20667;-77
2022/12/09 08:42:18;;;;;;;19.10;15.00;;;;;;;;;;4971885;28;20228;-76
2022/12/09 08:44:43;;;;;;;18.57;15.33;;;;;;;;;;4952574;28;20237;-77
2022/12/09 08:47:09;;;;;;;18.10;16.17;;;;;;;;;;4973661;28;20218;-77
2022/12/09 08:49:34;;;;;;;16.93;15.10;;;;;;;;;;4942296;28;20742;-77
2022/12/09 08:52:05;;;;;;;17.40;15.17;;;;;;;;;;4986606;28;20239;-76
2022/12/09 08:54:30;;;;;;;17.20;14.47;;;;;;;;;;4960206;28;20221;-76
2022/12/09 08:56:58;;;;;;;16.53;14.83;;;;;;;;;;4967085;28;20218;-76
2022/12/09 08:59:27;;;;;;;17.40;15.27;;;;;;;;;;4966368;28;20319;-77
2022/12/09 09:01:55;;;;;;;16.13;14.43;;;;;;;;;;4941124;28;20217;-78
2022/12/09 09:04:21;;;;;;;15.83;14.23;;;;;;;;;;4956827;28;20238;-77
2022/12/09 09:06:49;;;;;;;15.80;14.13;;;;;;;;;;4986893;28;20252;-76
2022/12/09 09:09:19;;;;;;;16.63;14.93;;;;;;;;;;4958550;28;20272;-77
2022/12/09 09:11:48;;;;;;;16.63;14.50;;;;;;;;;;4975731;28;20230;-76
2022/12/09 09:14:16;;;;;;;16.77;15.07;;;;;;;;;;4968065;28;20681;-77
2022/12/09 09:16:42;;;;;;;15.60;14.10;;;;;;;;;;4978600;28;20250;-77
2022/12/09 09:19:13;;;;;;;16.87;15.13;;;;;;;;;;4945568;28;20218;-77
2022/12/09 09:21:41;;;;;;;17.60;15.70;;;;;;;;;;4959885;28;20309;-74
2022/12/09 09:24:09;;;;;;;16.47;14.47;;;;;;;;;;4953256;28;20228;-76
2022/12/09 09:26:38;;;;;;;16.43;14.30;;;;;;;;;;4943302;28;20591;-77
2022/12/09 09:29:04;;;;;;;16.80;15.10;;;;;;;;;;4966867;28;20233;-75
2022/12/09 09:31:29;;;;;;;15.17;13.63;;;;;;;;;;4959293;28;20596;-75
2022/12/09 09:33:57;;;;;;;16.87;15.17;;;;;;;;;;4943775;28;20211;-75
2022/12/09 09:36:26;;;;;;;16.53;14.63;;;;;;;;;;4942924;28;21088;-75
2022/12/09 09:38:52;;;;;;;17.33;15.67;;;;;;;;;;4972230;28;20225;-76
2022/12/09 09:41:25;;;;;;;16.43;14.83;;;;;;;;;;4961903;28;20229;-76
2022/12/09 09:43:58;;;;;;;18.13;15.17;;;;;;;;;;4954018;28;20226;-76
2022/12/09 09:46:44;;;;;;;16.93;14.47;;;;;;;;;;4983938;28;20233;-76
2022/12/09 09:49:15;;;;;;;18.93;15.30;;;;;;;;;;4969634;28;20233;-76
2022/12/09 09:51:43;;;;;;;17.10;15.00;;;;;;;;;;4948742;28;20230;-76
2022/12/09 09:54:11;;;;;;;15.03;13.50;;;;;;;;;;4972073;28;20393;-77
2022/12/09 09:56:44;;;;;;;16.67;14.93;;;;;;;;;;4970741;28;20230;-76
2022/12/09 09:59:28;;;;;;;18.27;14.57;;;;;;;;;;4956757;28;20594;-76
2022/12/09 10:02:11;;;;;;;15.73;14.13;;;;;;;;;;4987379;28;20226;-75
2022/12/09 10:05:10;;;;;;;16.27;14.60;;;;;;;;;;4949446;28;20303;-75
2022/12/09 10:07:38;;;;;;;16.33;14.63;;;;;;;;;;4973689;28;20660;-74
2022/12/09 10:10:22;;;;;;;17.93;16.23;;;;;;;;;;4979467;28;20240;-76
2022/12/09 10:12:57;;;;;;;17.50;15.37;;;;;;;;;;4989040;28;20277;-77
2022/12/09 10:15:28;;;;;;;18.87;15.07;;;;;;;;;;4978272;28;20305;-75
2022/12/09 10:18:15;;;;;;;18.50;14.53;;;;;;;;;;4974502;28;20222;-75
2022/12/09 10:20:45;;;;;;;17.83;14.13;;;;;;;;;;4980223;28;20789;-74
2022/12/09 10:23:14;;;;;;;16.43;14.70;;;;;;;;;;4944067;28;20233;-76
2022/12/09 10:25:52;;;;;;;17.40;14.73;;;;;;;;;;4972225;28;20736;-75
2022/12/09 10:28:34;;;;;;;16.50;14.80;;;;;;;;;;4955072;28;20222;-77
2022/12/09 10:31:07;;;;;;;15.03;13.67;;;;;;;;;;4970395;28;20305;-75
2022/12/09 10:33:39;;;;;;;15.73;14.13;;;;;;;;;;4955302;28;20255;-75
2022/12/09 10:36:25;;;;;;;16.83;14.10;;;;;;;;;;4975472;28;20261;-76
2022/12/09 10:38:50;;;;;;;15.17;13.57;;;;;;;;;;4957910;28;20218;-74
2022/12/09 10:44:26;;;;;;;15.57;13.97;;;;;;;;;;4980955;28;20581;-74
2022/12/09 10:47:01;;;;;;;15.80;14.10;;;;;;;;;;4974836;28;20292;-78
2022/12/09 10:49:26;;;;;;;15.67;13.30;;;;;;;;;;4969500;28;20317;-75
2022/12/09 10:51:56;;;;;;;14.40;12.90;;;;;;;;;;4948885;28;20233;-74
2022/12/09 10:54:33;;;;;;;15.17;13.63;;;;;;;;;;4953762;28;20377;-75
2022/12/09 10:57:10;;;;;;;14.93;13.43;;;;;;;;;;4979145;28;20217;-75
2022/12/09 11:00:05;;;;;;;16.00;13.57;;;;;;;;;;4986765;28;20288;-75
2022/12/09 11:02:33;;;;;;;15.17;13.57;;;;;;;;;;4988561;28;20281;-75
2022/12/09 11:05:28;;;;;;;15.07;13.57;;;;;;;;;;4969407;28;20254;-77
2022/12/09 11:07:57;;;;;;;13.57;12.20;;;;;;;;;;4945546;28;20222;-75
2022/12/09 11:10:24;;;;;;;14.30;12.80;;;;;;;;;;4988751;28;20736;-75
2022/12/09 11:12:56;;;;;;;14.73;13.33;;;;;;;;;;4981847;28;20218;-76
2022/12/09 11:15:36;;;;;;;14.70;13.23;;;;;;;;;;4990371;28;20221;-75
2022/12/09 11:18:18;;;;;;;14.93;13.43;;;;;;;;;;4962424;28;20252;-75
2022/12/09 11:20:54;;;;;;;14.67;13.10;;;;;;;;;;4964296;28;20229;-75
2022/12/09 11:23:20;;;;;;;14.03;12.53;;;;;;;;;;4970799;28;20603;-76
2022/12/09 11:25:58;;;;;;;13.93;12.50;;;;;;;;;;4973578;28;20230;-75
2022/12/09 11:28:37;;;;;;;14.20;12.67;;;;;;;;;;4945316;28;20229;-75
2022/12/09 11:31:06;;;;;;;14.40;12.97;;;;;;;;;;4946224;28;20249;-75
2022/12/09 11:33:35;;;;;;;13.67;12.37;;;;;;;;;;4959933;28;20226;-76
2022/12/09 11:36:05;;;;;;;13.37;12.00;;;;;;;;;;4973820;28;20233;-75
2022/12/09 11:38:42;;;;;;;14.90;12.87;;;;;;;;;;4985980;28;20218;-77
2022/12/09 11:41:10;;;;;;;14.20;12.70;;;;;;;;;;4974832;28;20311;-74
2022/12/09 11:43:51;;;;;;;14.30;12.30;;;;;;;;;;4978114;28;20237;-74
2022/12/09 11:46:29;;;;;;;14.07;12.17;;;;;;;;;;4967049;28;20218;-75
2022/12/09 11:49:04;;;;;;;14.07;12.57;;;;;;;;;;4971224;28;20288;-75
2022/12/09 11:51:32;;;;;;;13.93;12.53;;;;;;;;;;4967657;28;20225;-76
2022/12/09 11:54:20;;;;;;;14.40;12.90;;;;;;;;;;4969613;28;20210;-74
2022/12/09 11:56:49;;;;;;;14.13;12.73;;;;;;;;;;4982458;28;20233;-74
2022/12/09 11:59:28;;;;;;;14.17;12.77;;;;;;;;;;4960029;28;20229;-77
2022/12/09 12:02:35;;;;;;;13.97;12.57;;;;;;;;;;4956244;28;20297;-77
2022/12/09 12:05:16;;;;;;;14.63;12.37;;;;;;;;;;4960849;28;20241;-77
2022/12/09 12:08:04;;;;;;;14.10;12.70;;;;;;;;;;4983662;28;20225;-75
2022/12/09 12:10:51;;;;;;;14.97;13.03;;;;;;;;;;4948030;28;20230;-76
2022/12/09 12:13:39;;;;;;;14.20;12.80;;;;;;;;;;4972195;28;20221;-76
2022/12/09 12:16:12;;;;;;;13.80;12.50;;;;;;;;;;4976429;28;20257;-76
2022/12/09 12:19:02;;;;;;;14.53;13.13;;;;;;;;;;4960791;28;20312;-77
2022/12/09 12:21:39;;;;;;;16.90;15.27;;;;;;;;;;4975631;28;20719;-75
2022/12/09 12:24:05;;;;;;;14.03;12.63;;;;;;;;;;4955081;28;20225;-75
2022/12/09 12:26:40;;;;;;;13.40;12.10;;;;;;;;;;4958476;28;20727;-76
2022/12/09 12:29:21;;;;;;;17.13;15.30;;;;;;;;;;4983818;28;20240;-76
2022/12/09 12:32:18;;;;;;;16.83;15.07;;;;;;;;;;4972256;28;20677;-75
2022/12/09 12:34:50;;;;;;;15.27;13.67;;;;;;;;;;4973206;28;20934;-75
2022/12/09 12:37:31;;;;;;;13.00;11.80;;;;;;;;;;4984223;28;20269;-74
2022/12/09 12:40:16;;;;;;;13.30;11.77;;;;;;;;;;4933672;28;20720;-75
2022/12/09 12:46:18;;;;;;;24.47;21.23;;;;;;;;;;4985652;28;20248;-75
2022/12/09 12:48:55;;;;;;;16.40;12.90;;;;;;;;;;4962763;28;20233;-74
2022/12/09 12:51:26;;;;;;;14.23;12.73;;;;;;;;;;4971031;28;20661;-75
2022/12/09 12:54:34;;;;;;;18.67;16.73;;;;;;;;;;4972123;28;20261;-74
2022/12/09 12:57:09;;;;;;;16.10;14.40;;;;;;;;;;4973085;28;20221;-73
2022/12/09 12:59:42;;;;;;;14.77;12.83;;;;;;;;;;4944673;28;20232;-74
2022/12/09 13:02:42;;;;;;;13.97;12.47;;;;;;;;;;4950929;28;20221;-73
2022/12/09 13:05:13;;;;;;;12.90;11.53;;;;;;;;;;4952753;28;20234;-74
2022/12/09 13:07:45;;;;;;;13.43;12.13;;;;;;;;;;4971998;28;20236;-73
2022/12/09 13:10:26;;;;;;;14.30;12.80;;;;;;;;;;4972389;28;20225;-75
2022/12/09 13:12:52;;;;;;;13.33;11.97;;;;;;;;;;4964171;28;20280;-73
2022/12/09 13:15:23;;;;;;;14.70;13.30;;;;;;;;;;4937249;28;20218;-73
2022/12/09 13:17:51;;;;;;;13.10;11.80;;;;;;;;;;4939463;28;20226;-75
2022/12/09 13:20:33;;;;;;;14.03;12.63;;;;;;;;;;4956217;28;20222;-75
2022/12/09 13:23:04;;;;;;;14.13;12.33;;;;;;;;;;4957793;28;20226;-75
2022/12/09 13:25:35;;;;;;;15.10;13.60;;;;;;;;;;4984082;28;20239;-76
2022/12/09 13:28:05;;;;;;;14.90;13.23;;;;;;;;;;4988842;28;20246;-73
2022/12/09 13:30:46;;;;;;;16.10;14.43;;;;;;;;;;4966385;28;20679;-74
2022/12/09 13:33:44;;;;;;;15.77;14.17;;;;;;;;;;4940605;28;20220;-73
2022/12/09 13:36:45;;;;;;;15.77;14.07;;;;;;;;;;4933637;28;20247;-77
2022/12/09 13:39:11;;;;;;;13.93;12.57;;;;;;;;;;4961176;28;20315;-76
2022/12/09 13:44:29;;;;;;;15.70;11.80;;;;;;;;;;4975542;28;20221;-76
2022/12/09 13:47:14;;;;;;;13.70;12.37;;;;;;;;;;4964102;28;20221;-75
2022/12/09 13:49:39;;;;;;;13.50;12.20;;;;;;;;;;4937451;28;20606;-74
2022/12/09 13:52:05;;;;;;;12.23;11.13;;;;;;;;;;4957159;28;20210;-77
2022/12/09 13:54:36;;;;;;;12.73;11.30;;;;;;;;;;4972556;28;20210;-73
2022/12/09 13:57:32;;;;;;;12.07;10.97;;;;;;;;;;4962261;28;20214;-73
2022/12/09 14:00:04;;;;;;;12.63;10.87;;;;;;;;;;4973159;28;20268;-75
2022/12/09 14:02:38;;;;;;;11.07;9.97;;;;;;;;;;4971834;28;20572;-76
2022/12/09 14:05:14;;;;;;;12.20;10.93;;;;;;;;;;4943526;28;20227;-75
2022/12/09 14:07:49;;;;;;;12.37;10.60;;;;;;;;;;4976716;28;20233;-74
2022/12/09 14:10:43;;;;;;;11.57;10.47;;;;;;;;;;4940697;28;20297;-75
2022/12/09 14:13:30;;;;;;;10.47;9.57;;;;;;;;;;4966734;28;20230;-76
2022/12/09 14:16:15;;;;;;;12.70;10.47;;;;;;;;;;4960693;28;20327;-80
2022/12/09 14:18:43;;;;;;;11.13;10.03;;;;;;;;;;4975859;28;20229;-83
2022/12/09 14:21:18;;;;;;;13.77;11.60;;;;;;;;;;4988295;28;20230;-77
2022/12/09 14:24:15;;;;;;;12.13;11.00;;;;;;;;;;4994616;28;20231;-75
2022/12/09 14:26:40;;;;;;;11.47;10.37;;;;;;;;;;4985032;28;20796;-73
2022/12/09 14:29:08;;;;;;;12.67;11.47;;;;;;;;;;4987333;28;20233;-76
2022/12/09 14:31:57;;;;;;;12.23;11.03;;;;;;;;;;4971006;28;20234;-76
2022/12/09 14:34:24;;;;;;;12.90;10.50;;;;;;;;;;4958416;28;21822;-76
2022/12/09 14:36:58;;;;;;;13.53;11.73;;;;;;;;;;4993189;28;20660;-74
2022/12/09 14:39:29;;;;;;;12.60;11.30;;;;;;;;;;4969708;28;20296;-74
2022/12/09 14:42:11;;;;;;;12.20;11.00;;;;;;;;;;4950300;28;20225;-75
2022/12/09 14:44:58;;;;;;;13.13;11.77;;;;;;;;;;4954887;28;20236;-81
2022/12/09 14:47:27;;;;;;;13.23;11.97;;;;;;;;;;4993684;28;20225;-75
2022/12/09 14:49:55;;;;;;;14.33;12.90;;;;;;;;;;4963315;28;20226;-77
2022/12/09 14:52:33;;;;;;;16.93;14.43;;;;;;;;;;4968744;28;20235;-76
2022/12/09 14:55:01;;;;;;;14.73;13.33;;;;;;;;;;4976274;28;20224;-78